CFJAB TNCM-TIST
Flight info
| Callsign | CFJAB |
|---|---|
| Flight time | 0h 29m |
| Altitude | 18000 |
| Route | MODOR2 JUICE B520 STT DCT |
| Aircraft | C750/M-SBDE3FGHRWXY/S |
Departure
| Time | 2026-04-25 01:50 |
|---|---|
| Airport | Princess Juliana International Airport (TNCM) |
Arrival
| Time | 2026-04-25 02:20 |
|---|---|
| Airport | Cyril E. King Airport (TIST) |
| Time | Latitude | Longitude | Altitude | Speed | Heading |
|---|---|---|---|---|---|
| 2026-04-25 01:27 | 18.04251 | -63.11223 | 17 ft | 0 kts | 352° |
| 2026-04-25 01:43 | 18.04260 | -63.11225 | 17 ft | 5 kts | 341° |
| 2026-04-25 01:43 | 18.04259 | -63.11276 | 17 ft | 12 kts | 250° |
| 2026-04-25 01:44 | 18.04238 | -63.11372 | 17 ft | 15 kts | 261° |
| 2026-04-25 01:44 | 18.04219 | -63.11473 | 17 ft | 14 kts | 244° |
| 2026-04-25 01:44 | 18.04164 | -63.11549 | 17 ft | 13 kts | 230° |
| 2026-04-25 01:44 | 18.04110 | -63.11618 | 17 ft | 12 kts | 230° |
| 2026-04-25 01:45 | 18.04066 | -63.11688 | 17 ft | 11 kts | 251° |
| 2026-04-25 01:45 | 18.04053 | -63.11766 | 19 ft | 9 kts | 262° |
| 2026-04-25 01:45 | 18.04047 | -63.11806 | 17 ft | 4 kts | 262° |
| 2026-04-25 01:45 | 18.04043 | -63.11835 | 17 ft | 4 kts | 261° |
| 2026-04-25 01:46 | 18.04040 | -63.11856 | 17 ft | 0 kts | 261° |
| 2026-04-25 01:47 | 18.04040 | -63.11861 | 18 ft | 5 kts | 261° |
| 2026-04-25 01:47 | 18.04013 | -63.11925 | 18 ft | 13 kts | 234° |
| 2026-04-25 01:47 | 18.03946 | -63.11958 | 19 ft | 9 kts | 140° |
| 2026-04-25 01:48 | 18.03944 | -63.11929 | 19 ft | 3 kts | 68° |
| 2026-04-25 01:48 | 18.03947 | -63.11912 | 19 ft | 2 kts | 78° |
| 2026-04-25 01:48 | 18.03948 | -63.11911 | 19 ft | 0 kts | 78° |
| 2026-04-25 01:50 | 18.03956 | -63.11864 | 20 ft | 22 kts | 80° |
| 2026-04-25 01:50 | 18.04037 | -63.11280 | 18 ft | 134 kts | 82° |
| 2026-04-25 01:50 | 18.04171 | -63.10212 | 469 ft | 157 kts | 85° |
| 2026-04-25 01:50 | 18.03738 | -63.09085 | 972 ft | 189 kts | 136° |
| 2026-04-25 01:51 | 18.02444 | -63.08524 | 1592 ft | 219 kts | 164° |
| 2026-04-25 01:51 | 18.00880 | -63.08149 | 2375 ft | 242 kts | 165° |
| 2026-04-25 01:51 | 17.99169 | -63.07721 | 3203 ft | 260 kts | 165° |
| 2026-04-25 01:51 | 17.97405 | -63.07270 | 4388 ft | 262 kts | 165° |
| 2026-04-25 01:52 | 17.95615 | -63.06841 | 5438 ft | 269 kts | 171° |
| 2026-04-25 01:52 | 17.93758 | -63.07204 | 6344 ft | 280 kts | 206° |
| 2026-04-25 01:52 | 17.92376 | -63.08634 | 7351 ft | 283 kts | 236° |
| 2026-04-25 01:52 | 17.91728 | -63.10597 | 8396 ft | 290 kts | 263° |
| 2026-04-25 01:53 | 17.92020 | -63.12693 | 9497 ft | 293 kts | 289° |
| 2026-04-25 01:53 | 17.92838 | -63.14663 | 10401 ft | 300 kts | 294° |
| 2026-04-25 01:53 | 17.93731 | -63.16732 | 10789 ft | 322 kts | 292° |
| 2026-04-25 01:53 | 17.94575 | -63.18932 | 11626 ft | 324 kts | 290° |
| 2026-04-25 01:54 | 17.95404 | -63.21146 | 12530 ft | 327 kts | 290° |
| 2026-04-25 01:54 | 17.96267 | -63.23347 | 13360 ft | 331 kts | 291° |
| 2026-04-25 01:54 | 17.97156 | -63.25590 | 14181 ft | 334 kts | 291° |
| 2026-04-25 01:54 | 17.98043 | -63.27867 | 14860 ft | 341 kts | 290° |
| 2026-04-25 01:55 | 17.98960 | -63.30246 | 15004 ft | 364 kts | 290° |
| 2026-04-25 01:55 | 17.99951 | -63.32798 | 15011 ft | 388 kts | 290° |
| 2026-04-25 01:55 | 18.01006 | -63.35498 | 15023 ft | 409 kts | 291° |
| 2026-04-25 01:55 | 18.02091 | -63.38279 | 15610 ft | 404 kts | 291° |
| 2026-04-25 01:56 | 18.03119 | -63.40917 | 16969 ft | 377 kts | 290° |
| 2026-04-25 01:56 | 18.04098 | -63.43443 | 17805 ft | 373 kts | 290° |
| 2026-04-25 01:56 | 18.05072 | -63.45963 | 17993 ft | 376 kts | 290° |
| 2026-04-25 01:56 | 18.05854 | -63.48569 | 17985 ft | 374 kts | 281° |
| 2026-04-25 01:57 | 18.06744 | -63.54262 | 18009 ft | 415 kts | 278° |
| 2026-04-25 01:57 | 18.07361 | -63.57295 | 18016 ft | 434 kts | 282° |
| 2026-04-25 01:57 | 18.08073 | -63.60416 | 18010 ft | 442 kts | 281° |
| 2026-04-25 01:58 | 18.08706 | -63.63596 | 18015 ft | 445 kts | 279° |
| 2026-04-25 01:58 | 18.09283 | -63.66809 | 18011 ft | 449 kts | 279° |
| 2026-04-25 01:58 | 18.09909 | -63.70031 | 18014 ft | 451 kts | 280° |
| 2026-04-25 01:58 | 18.10583 | -63.73261 | 18014 ft | 452 kts | 281° |
| 2026-04-25 01:59 | 18.11230 | -63.76490 | 18014 ft | 452 kts | 280° |
| 2026-04-25 01:59 | 18.11846 | -63.79723 | 18011 ft | 445 kts | 279° |
| 2026-04-25 01:59 | 18.12458 | -63.82881 | 18010 ft | 447 kts | 280° |
| 2026-04-25 01:59 | 18.13099 | -63.86090 | 18009 ft | 447 kts | 280° |
| 2026-04-25 02:00 | 18.13738 | -63.89304 | 18011 ft | 447 kts | 280° |
| 2026-04-25 02:00 | 18.14360 | -63.92504 | 18011 ft | 447 kts | 280° |
| 2026-04-25 02:00 | 18.14984 | -63.95711 | 18011 ft | 447 kts | 280° |
| 2026-04-25 02:00 | 18.15615 | -63.98920 | 18006 ft | 448 kts | 280° |
| 2026-04-25 02:01 | 18.16237 | -64.02084 | 18006 ft | 448 kts | 280° |
| 2026-04-25 02:01 | 18.16865 | -64.05302 | 18010 ft | 447 kts | 280° |
| 2026-04-25 02:01 | 18.17489 | -64.08506 | 18009 ft | 448 kts | 280° |
| 2026-04-25 02:01 | 18.18114 | -64.11705 | 18002 ft | 446 kts | 280° |
| 2026-04-25 02:02 | 18.18739 | -64.14906 | 18002 ft | 445 kts | 280° |
| 2026-04-25 02:02 | 18.19360 | -64.18095 | 18001 ft | 444 kts | 280° |
| 2026-04-25 02:02 | 18.19969 | -64.21232 | 18001 ft | 444 kts | 280° |
| 2026-04-25 02:02 | 18.20588 | -64.24412 | 17996 ft | 443 kts | 280° |
| 2026-04-25 02:03 | 18.21204 | -64.27584 | 17994 ft | 443 kts | 280° |
| 2026-04-25 02:03 | 18.21818 | -64.30751 | 17994 ft | 442 kts | 279° |
| 2026-04-25 02:03 | 18.22433 | -64.33921 | 17994 ft | 442 kts | 279° |
| 2026-04-25 02:03 | 18.23028 | -64.37100 | 17985 ft | 440 kts | 278° |
| 2026-04-25 02:04 | 18.23282 | -64.40304 | 17977 ft | 438 kts | 270° |
| 2026-04-25 02:04 | 18.23276 | -64.43522 | 17763 ft | 440 kts | 267° |
| 2026-04-25 02:04 | 18.23175 | -64.46740 | 17342 ft | 440 kts | 266° |
| 2026-04-25 02:04 | 18.23039 | -64.49949 | 16838 ft | 438 kts | 266° |
| 2026-04-25 02:05 | 18.22890 | -64.53147 | 16339 ft | 436 kts | 266° |
| 2026-04-25 02:05 | 18.22738 | -64.56325 | 15860 ft | 434 kts | 266° |
| 2026-04-25 02:05 | 18.22594 | -64.59386 | 15376 ft | 401 kts | 266° |
| 2026-04-25 02:05 | 18.22467 | -64.62162 | 14908 ft | 373 kts | 266° |
| 2026-04-25 02:06 | 18.22346 | -64.64862 | 14435 ft | 369 kts | 266° |
| 2026-04-25 02:06 | 18.22226 | -64.67551 | 13973 ft | 367 kts | 266° |
| 2026-04-25 02:06 | 18.22108 | -64.70230 | 13485 ft | 365 kts | 266° |
| 2026-04-25 02:06 | 18.21988 | -64.72895 | 12977 ft | 363 kts | 266° |
| 2026-04-25 02:07 | 18.21866 | -64.75537 | 12485 ft | 361 kts | 266° |
| 2026-04-25 02:07 | 18.21742 | -64.78166 | 11994 ft | 358 kts | 266° |
| 2026-04-25 02:07 | 18.21617 | -64.80781 | 11511 ft | 356 kts | 266° |
| 2026-04-25 02:07 | 18.21490 | -64.83341 | 11034 ft | 340 kts | 265° |
| 2026-04-25 02:08 | 18.21375 | -64.85758 | 10557 ft | 321 kts | 265° |
| 2026-04-25 02:08 | 18.21265 | -64.88047 | 10081 ft | 306 kts | 266° |
| 2026-04-25 02:08 | 18.21161 | -64.90228 | 9581 ft | 298 kts | 266° |
| 2026-04-25 02:08 | 18.21049 | -64.92385 | 9064 ft | 294 kts | 265° |
| 2026-04-25 02:09 | 18.20938 | -64.94520 | 8545 ft | 291 kts | 266° |
| 2026-04-25 02:09 | 18.20822 | -64.96632 | 8063 ft | 289 kts | 266° |
| 2026-04-25 02:09 | 18.20706 | -64.98739 | 7579 ft | 287 kts | 265° |
| 2026-04-25 02:09 | 18.20604 | -65.00824 | 7107 ft | 285 kts | 266° |
| 2026-04-25 02:10 | 18.20506 | -65.02906 | 6644 ft | 286 kts | 266° |
| 2026-04-25 02:10 | 18.20411 | -65.04985 | 6167 ft | 284 kts | 266° |
| 2026-04-25 02:10 | 18.20314 | -65.07060 | 5682 ft | 282 kts | 266° |
| 2026-04-25 02:10 | 18.20211 | -65.09121 | 5199 ft | 282 kts | 266° |
| 2026-04-25 02:11 | 18.20107 | -65.11171 | 4714 ft | 279 kts | 266° |
| 2026-04-25 02:11 | 18.20002 | -65.13203 | 4217 ft | 277 kts | 266° |
| 2026-04-25 02:11 | 18.19896 | -65.15228 | 3726 ft | 276 kts | 265° |
| 2026-04-25 02:11 | 18.19794 | -65.17233 | 3247 ft | 274 kts | 266° |
| 2026-04-25 02:12 | 18.19684 | -65.19236 | 2803 ft | 271 kts | 266° |
| 2026-04-25 02:12 | 18.19580 | -65.21171 | 2810 ft | 271 kts | 266° |
| 2026-04-25 02:12 | 18.19477 | -65.23149 | 2815 ft | 272 kts | 266° |
| 2026-04-25 02:12 | 18.19372 | -65.25148 | 2823 ft | 274 kts | 266° |
| 2026-04-25 02:13 | 18.19565 | -65.27121 | 2747 ft | 273 kts | 291° |
| 2026-04-25 02:13 | 18.20736 | -65.28645 | 2735 ft | 270 kts | 327° |
| 2026-04-25 02:13 | 18.22495 | -65.29264 | 2805 ft | 268 kts | 352° |
| 2026-04-25 02:13 | 18.24358 | -65.29502 | 2829 ft | 270 kts | 355° |
| 2026-04-25 02:14 | 18.26222 | -65.29706 | 2824 ft | 270 kts | 356° |
| 2026-04-25 02:14 | 18.28034 | -65.29473 | 2757 ft | 263 kts | 25° |
| 2026-04-25 02:14 | 18.29403 | -65.28259 | 2800 ft | 257 kts | 52° |
| 2026-04-25 02:14 | 18.30477 | -65.26745 | 2823 ft | 259 kts | 56° |
| 2026-04-25 02:15 | 18.31513 | -65.25217 | 2814 ft | 260 kts | 56° |
| 2026-04-25 02:15 | 18.32561 | -65.23672 | 2815 ft | 261 kts | 56° |
| 2026-04-25 02:15 | 18.33470 | -65.22054 | 2752 ft | 256 kts | 73° |
| 2026-04-25 02:15 | 18.33440 | -65.20218 | 2768 ft | 254 kts | 104° |
| 2026-04-25 02:16 | 18.33016 | -65.18411 | 2821 ft | 254 kts | 101° |
| 2026-04-25 02:16 | 18.32884 | -65.16553 | 2818 ft | 257 kts | 90° |
| 2026-04-25 02:16 | 18.32986 | -65.14681 | 2818 ft | 257 kts | 87° |
| 2026-04-25 02:16 | 18.33083 | -65.12796 | 2638 ft | 258 kts | 88° |
| 2026-04-25 02:17 | 18.33161 | -65.11015 | 2285 ft | 221 kts | 88° |
| 2026-04-25 02:17 | 18.33217 | -65.09526 | 2022 ft | 200 kts | 89° |
| 2026-04-25 02:17 | 18.33279 | -65.08046 | 1771 ft | 201 kts | 88° |
| 2026-04-25 02:17 | 18.33340 | -65.06589 | 1516 ft | 189 kts | 88° |
| 2026-04-25 02:18 | 18.33396 | -65.05326 | 1281 ft | 158 kts | 88° |
| 2026-04-25 02:18 | 18.33441 | -65.04253 | 1096 ft | 138 kts | 87° |
| 2026-04-25 02:18 | 18.33480 | -65.03304 | 928 ft | 123 kts | 88° |
| 2026-04-25 02:18 | 18.33516 | -65.02413 | 778 ft | 124 kts | 88° |
| 2026-04-25 02:19 | 18.33552 | -65.01495 | 610 ft | 125 kts | 87° |
| 2026-04-25 02:19 | 18.33598 | -65.00585 | 451 ft | 125 kts | 87° |
| 2026-04-25 02:19 | 18.33633 | -64.99679 | 352 ft | 124 kts | 86° |
| 2026-04-25 02:19 | 18.33675 | -64.98768 | 141 ft | 125 kts | 87° |
| 2026-04-25 02:20 | 18.33711 | -64.97887 | 19 ft | 113 kts | 87° |
| 2026-04-25 02:20 | 18.33737 | -64.97240 | 16 ft | 58 kts | 88° |
| 2026-04-25 02:20 | 18.33748 | -64.96931 | 11 ft | 37 kts | 88° |
| 2026-04-25 02:20 | 18.33762 | -64.96715 | 9 ft | 11 kts | 67° |
| 2026-04-25 02:21 | 18.33822 | -64.96689 | 10 ft | 9 kts | 358° |
| 2026-04-25 02:21 | 18.33880 | -64.96692 | 10 ft | 8 kts | 357° |
| 2026-04-25 02:21 | 18.33908 | -64.96670 | 10 ft | 8 kts | 73° |
| 2026-04-25 02:21 | 18.33913 | -64.96604 | 10 ft | 9 kts | 74° |
| 2026-04-25 02:22 | 18.33915 | -64.96553 | 10 ft | 5 kts | 144° |
| 2026-04-25 02:22 | 18.33909 | -64.96550 | 9 ft | 0 kts | 162° |
| 2026-04-25 02:25 | 18.33908 | -64.96550 | 9 ft | 0 kts | 162° |
| 2026-04-25 02:26 | 18.33905 | -64.96549 | 9 ft | 1 kts | 162° |
| 2026-04-25 02:26 | 18.33899 | -64.96547 | 9 ft | 1 kts | 162° |
| 2026-04-25 02:26 | 18.33897 | -64.96546 | -18 ft | 0 kts | 162° |
| 2026-04-25 02:26 | 18.33895 | -64.96545 | 9 ft | 1 kts | 162° |